Time;durP1;ratioP1;P1;durP2;ratioP2;P2;SDS_P1;SDS_P2;PMS_P1;PMS_P2;Temp;Humidity;BMP_temperature;BMP_pressure;BME280_temperature;BME280_humidity;BME280_pressure;Samples;Min_cycle;Max_cycle;Signal;HPM_P1;HPM_P2
2021/07/25 00:01:20;;;;;;;3.13;2.80;;;20.70;99.90;;;;;;7677131;23;20472;-65
2021/07/25 00:04:23;;;;;;;3.60;2.67;;;20.60;99.90;;;;;;7676070;23;20195;-65
2021/07/25 00:07:25;;;;;;;3.93;3.00;;;20.50;99.90;;;;;;7676118;23;20183;-65
2021/07/25 00:10:27;;;;;;;3.40;2.70;;;20.40;99.90;;;;;;7675966;23;20218;-65
2021/07/25 00:13:30;;;;;;;5.03;2.67;;;20.40;99.90;;;;;;7676069;23;20640;-65
2021/07/25 00:16:33;;;;;;;3.20;2.50;;;20.30;99.90;;;;;;7676731;23;20161;-65
2021/07/25 00:19:36;;;;;;;5.30;3.63;;;20.30;99.90;;;;;;7675946;23;20160;-65
2021/07/25 00:22:40;;;;;;;3.60;2.83;;;20.40;99.90;;;;;;7676137;23;20192;-65
2021/07/25 00:25:42;;;;;;;5.33;3.80;;;20.40;99.90;;;;;;7675958;23;20686;-65
2021/07/25 00:28:45;;;;;;;4.73;4.00;;;20.40;99.90;;;;;;7676380;23;20191;-65
2021/07/25 00:31:48;;;;;;;5.17;4.40;;;20.40;99.90;;;;;;7650668;23;20175;-65
2021/07/25 00:34:53;;;;;;;6.60;4.33;;;20.40;99.90;;;;;;7675735;23;20508;-65
2021/07/25 00:37:56;;;;;;;5.60;4.30;;;20.40;99.90;;;;;;7676949;23;20168;-65
2021/07/25 00:41:24;;;;;;;5.40;4.37;;;20.50;99.90;;;;;;7676061;23;20168;-65
2021/07/25 00:44:26;;;;;;;6.10;5.03;;;20.40;99.90;;;;;;7646311;23;20632;-65
2021/07/25 00:47:29;;;;;;;6.53;5.80;;;20.40;99.90;;;;;;7675486;23;20174;-65
2021/07/25 00:50:31;;;;;;;8.07;5.80;;;20.30;99.90;;;;;;7676289;23;20164;-65
2021/07/25 00:53:36;;;;;;;8.10;6.13;;;20.20;99.90;;;;;;7676111;23;20667;-65
2021/07/25 00:56:38;;;;;;;7.13;5.77;;;20.20;99.90;;;;;;7675689;23;20160;-65
2021/07/25 00:59:40;;;;;;;5.90;4.90;;;20.20;99.90;;;;;;7676945;23;20164;-65
2021/07/25 01:02:57;;;;;;;6.47;5.70;;;20.30;99.90;;;;;;7678300;23;20218;-65
2021/07/25 01:06:21;;;;;;;7.83;5.37;;;20.30;99.90;;;;;;7678542;23;20180;-65
2021/07/25 01:09:42;;;;;;;6.83;6.00;;;20.30;99.90;;;;;;7678911;23;20219;-65
2021/07/25 01:12:50;;;;;;;6.60;5.73;;;20.20;99.90;;;;;;7678647;23;20157;-64
2021/07/25 01:15:54;;;;;;;6.00;5.40;;;20.20;99.90;;;;;;7678555;23;20223;-64
2021/07/25 01:18:57;;;;;;;5.93;5.13;;;20.20;99.90;;;;;;7677847;23;20626;-65
2021/07/25 01:21:59;;;;;;;6.47;4.87;;;20.20;99.90;;;;;;7678408;23;20192;-65
2021/07/25 01:25:02;;;;;;;6.30;4.80;;;20.20;99.90;;;;;;7651114;23;20204;-65
2021/07/25 01:28:23;;;;;;;5.77;5.17;;;20.20;99.90;;;;;;7678403;23;20175;-65
2021/07/25 01:31:39;;;;;;;7.60;5.40;;;20.20;99.90;;;;;;7678382;23;20485;-65
2021/07/25 01:34:43;;;;;;;5.37;4.87;;;20.20;99.90;;;;;;7677717;23;20196;-65
2021/07/25 01:37:46;;;;;;;6.80;5.87;;;20.00;99.90;;;;;;7678161;23;20173;-65
2021/07/25 01:41:03;;;;;;;6.07;5.40;;;19.90;99.90;;;;;;7677417;23;20168;-65
2021/07/25 01:44:05;;;;;;;8.37;5.80;;;19.90;99.90;;;;;;7652284;23;20211;-65
2021/07/25 01:47:07;;;;;;;6.80;5.60;;;19.90;99.90;;;;;;7677379;23;20658;-65
2021/07/25 01:50:11;;;;;;;6.50;5.67;;;19.80;99.90;;;;;;7652362;23;20226;-65
2021/07/25 01:53:15;;;;;;;6.73;6.07;;;19.80;99.90;;;;;;7678139;23;20185;-65
2021/07/25 01:56:17;;;;;;;7.47;5.60;;;19.70;99.90;;;;;;7626537;23;20176;-65
2021/07/25 01:59:20;;;;;;;9.53;5.40;;;19.80;99.90;;;;;;7678013;23;20243;-65
2021/07/25 02:02:22;;;;;;;6.07;5.40;;;19.80;99.90;;;;;;7650936;23;20172;-65
2021/07/25 02:05:25;;;;;;;8.13;5.30;;;19.80;99.90;;;;;;7652261;23;20219;-65
2021/07/25 02:08:27;;;;;;;6.60;5.07;;;19.80;99.90;;;;;;7678088;23;20171;-65
2021/07/25 02:11:29;;;;;;;6.00;5.40;;;19.80;99.90;;;;;;7677232;23;20637;-65
2021/07/25 02:14:33;;;;;;;5.73;5.23;;;19.80;99.90;;;;;;7677677;23;20180;-65
2021/07/25 02:17:35;;;;;;;7.13;5.03;;;19.80;99.90;;;;;;7676620;23;20219;-65
2021/07/25 02:20:38;;;;;;;5.93;5.10;;;19.80;99.90;;;;;;7677645;23;20195;-65
2021/07/25 02:23:40;;;;;;;6.60;5.90;;;19.70;99.90;;;;;;7677534;23;20168;-65
2021/07/25 02:26:43;;;;;;;8.57;5.67;;;19.60;99.90;;;;;;7651785;23;20168;-65
2021/07/25 02:29:45;;;;;;;8.57;6.50;;;19.50;99.90;;;;;;7677758;23;20179;-65
2021/07/25 02:32:49;;;;;;;9.77;6.10;;;19.50;99.90;;;;;;7677101;23;20222;-65
2021/07/25 02:35:51;;;;;;;8.23;5.40;;;19.60;99.90;;;;;;7677693;23;20240;-65
2021/07/25 02:38:53;;;;;;;6.20;5.60;;;19.60;99.90;;;;;;7676756;23;20164;-65
2021/07/25 02:41:56;;;;;;;7.43;5.87;;;19.70;99.90;;;;;;7677483;23;20164;-65
2021/07/25 02:44:58;;;;;;;6.23;5.40;;;19.60;99.90;;;;;;7677682;23;20192;-65
2021/07/25 02:48:00;;;;;;;6.40;5.80;;;19.60;99.90;;;;;;7650830;23;20168;-65
2021/07/25 02:51:02;;;;;;;5.97;4.97;;;19.60;99.90;;;;;;7677388;23;20635;-65
2021/07/25 02:54:05;;;;;;;6.10;4.93;;;19.60;99.90;;;;;;7676666;23;20184;-65
2021/07/25 02:57:07;;;;;;;5.80;5.03;;;19.50;99.90;;;;;;7677285;23;20174;-65
2021/07/25 03:00:10;;;;;;;5.43;4.93;;;19.40;99.90;;;;;;7677352;23;20170;-65
2021/07/25 03:03:12;;;;;;;5.50;5.00;;;19.30;99.90;;;;;;7676778;23;20211;-65
2021/07/25 03:06:15;;;;;;;5.30;4.53;;;19.30;99.90;;;;;;7650569;23;20196;-65
2021/07/25 03:09:17;;;;;;;6.67;4.83;;;19.30;99.90;;;;;;7676571;23;20478;-65
2021/07/25 03:12:19;;;;;;;5.80;4.43;;;19.20;99.90;;;;;;7677022;23;20497;-65
2021/07/25 03:15:22;;;;;;;5.10;4.60;;;19.10;99.90;;;;;;7650344;23;20192;-65
2021/07/25 03:18:24;;;;;;;6.67;5.27;;;19.10;99.90;;;;;;7677232;23;20612;-65
2021/07/25 03:21:27;;;;;;;6.33;4.97;;;19.00;99.90;;;;;;7677018;23;20239;-65
2021/07/25 03:24:29;;;;;;;5.80;4.87;;;19.00;99.90;;;;;;7676576;23;20164;-65
2021/07/25 03:27:31;;;;;;;5.40;4.57;;;18.90;99.90;;;;;;7676732;23;20242;-64
2021/07/25 03:30:33;;;;;;;4.83;4.43;;;18.90;99.90;;;;;;7676560;23;20187;-65
2021/07/25 03:33:36;;;;;;;4.70;4.30;;;18.90;99.90;;;;;;7676876;23;20188;-64
2021/07/25 03:36:39;;;;;;;5.90;4.63;;;18.90;99.90;;;;;;7650562;23;20215;-64
2021/07/25 03:39:43;;;;;;;5.93;4.93;;;18.90;99.90;;;;;;7676524;23;20164;-65
2021/07/25 03:42:46;;;;;;;5.00;4.50;;;18.80;99.90;;;;;;7676642;23;20188;-65
2021/07/25 03:45:48;;;;;;;4.93;4.37;;;18.70;99.90;;;;;;7675964;23;20246;-65
2021/07/25 03:48:50;;;;;;;4.63;4.13;;;18.70;99.90;;;;;;7649736;23;20187;-65
2021/07/25 03:51:52;;;;;;;5.77;4.40;;;18.70;99.90;;;;;;7676399;23;20172;-64
2021/07/25 03:54:55;;;;;;;5.50;4.97;;;18.70;99.90;;;;;;7675626;23;20187;-64
2021/07/25 03:57:57;;;;;;;6.17;4.47;;;18.70;99.90;;;;;;7675932;23;20218;-64
2021/07/25 04:00:59;;;;;;;7.93;4.77;;;18.70;99.90;;;;;;7649447;23;20199;-65
2021/07/25 04:04:02;;;;;;;5.07;4.13;;;18.70;99.90;;;;;;7676121;23;20164;-64
2021/07/25 04:07:04;;;;;;;4.87;4.30;;;18.70;99.90;;;;;;7675927;23;20187;-64
2021/07/25 04:10:07;;;;;;;5.67;4.20;;;18.70;99.90;;;;;;7675872;23;20164;-64
2021/07/25 04:13:11;;;;;;;5.60;4.10;;;18.70;99.90;;;;;;7677100;23;20168;-65
2021/07/25 04:16:13;;;;;;;5.13;4.30;;;18.70;99.90;;;;;;7675342;23;20191;-64
2021/07/25 04:19:16;;;;;;;4.33;3.93;;;18.60;99.90;;;;;;7675658;23;20183;-65
2021/07/25 04:22:18;;;;;;;4.50;3.77;;;18.60;99.90;;;;;;7675484;23;20188;-64
2021/07/25 04:25:21;;;;;;;7.57;3.87;;;18.70;99.90;;;;;;7675984;23;20215;-64
2021/07/25 04:28:23;;;;;;;6.50;4.27;;;18.70;99.90;;;;;;7676134;23;20175;-65
2021/07/25 04:31:26;;;;;;;6.00;3.87;;;18.70;99.90;;;;;;7649957;23;20178;-64
2021/07/25 04:34:29;;;;;;;3.93;3.40;;;18.70;99.90;;;;;;7649010;23;20196;-64
2021/07/25 04:37:34;;;;;;;3.97;3.57;;;18.70;99.90;;;;;;7648946;23;20171;-64
2021/07/25 04:40:36;;;;;;;5.27;3.90;;;18.70;99.90;;;;;;7676370;23;20543;-65
2021/07/25 04:43:39;;;;;;;4.63;3.37;;;18.70;99.90;;;;;;7675671;23;20175;-65
2021/07/25 04:46:47;;;;;;;4.63;3.43;;;18.70;99.90;;;;;;7648473;23;20168;-65
2021/07/25 04:50:01;;;;;;;3.90;3.50;;;18.70;99.90;;;;;;7675854;23;20226;-64
2021/07/25 04:53:06;;;;;;;5.40;3.43;;;18.60;99.90;;;;;;7675125;23;20598;-65
2021/07/25 04:56:11;;;;;;;5.27;4.20;;;18.40;99.90;;;;;;7675731;23;20369;-64
2021/07/25 04:59:19;;;;;;;4.27;3.87;;;18.40;99.90;;;;;;7675109;23;20165;-65
2021/07/25 05:02:24;;;;;;;5.13;3.43;;;18.30;99.90;;;;;;7675802;23;20155;-65
2021/07/25 05:05:28;;;;;;;5.87;4.10;;;18.40;99.90;;;;;;7675414;23;20203;-65
2021/07/25 05:08:31;;;;;;;4.97;4.07;;;18.40;99.90;;;;;;7648430;23;20565;-65
2021/07/25 05:11:41;;;;;;;4.30;3.90;;;18.40;99.90;;;;;;7650458;23;20169;-64
2021/07/25 05:14:58;;;;;;;5.90;3.83;;;18.40;99.90;;;;;;7675341;23;20183;-64
2021/07/25 05:18:02;;;;;;;4.37;3.97;;;18.50;99.90;;;;;;7675391;23;20157;-64
2021/07/25 05:21:19;;;;;;;4.33;3.73;;;18.40;99.90;;;;;;7632687;23;20193;-65
2021/07/25 05:24:24;;;;;;;6.03;3.93;;;18.40;99.90;;;;;;7638895;23;20481;-64
2021/07/25 05:27:37;;;;;;;4.90;4.40;;;18.40;99.90;;;;;;7639012;23;20252;-64
2021/07/25 05:30:41;;;;;;;4.97;4.10;;;18.40;99.90;;;;;;7638172;23;20488;-65
2021/07/25 05:33:43;;;;;;;3.67;3.37;;;18.40;99.90;;;;;;7612485;23;20169;-65
2021/07/25 05:36:45;;;;;;;5.03;3.90;;;18.50;99.90;;;;;;7638269;23;20533;-65
2021/07/25 05:39:47;;;;;;;6.90;5.83;;;18.60;99.90;;;;;;7612993;23;20552;-64
2021/07/25 05:42:50;;;;;;;10.23;9.10;;;18.60;99.90;;;;;;7638409;23;20173;-65
2021/07/25 05:45:52;;;;;;;12.30;7.73;;;18.70;99.90;;;;;;7637585;23;20624;-64
2021/07/25 05:48:54;;;;;;;12.77;5.80;;;18.70;99.90;;;;;;7639752;23;20172;-65
2021/07/25 05:51:56;;;;;;;6.70;6.03;;;18.70;99.90;;;;;;7641258;23;20223;-64
2021/07/25 05:54:58;;;;;;;5.87;5.27;;;18.80;99.90;;;;;;7640193;23;20212;-65
2021/07/25 05:58:01;;;;;;;5.10;4.60;;;18.80;99.90;;;;;;7641120;23;20558;-66
2021/07/25 06:01:04;;;;;;;7.10;4.93;;;18.80;99.90;;;;;;7639250;23;20171;-65
2021/07/25 06:04:06;;;;;;;6.40;5.00;;;18.90;99.90;;;;;;7613256;23;20637;-65
2021/07/25 06:07:08;;;;;;;6.63;5.60;;;19.00;99.90;;;;;;7639835;23;20195;-66
2021/07/25 06:10:11;;;;;;;9.83;5.67;;;19.10;99.90;;;;;;7641162;23;20168;-65
2021/07/25 06:13:13;;;;;;;7.00;5.83;;;19.10;99.90;;;;;;7614134;23;20168;-64
2021/07/25 06:16:16;;;;;;;6.17;4.37;;;19.20;99.90;;;;;;7639579;23;20312;-64
2021/07/25 06:19:18;;;;;;;6.20;4.60;;;19.30;99.90;;;;;;7613397;23;20485;-65
2021/07/25 06:22:20;;;;;;;5.00;4.20;;;19.30;99.90;;;;;;7671431;23;20219;-64
2021/07/25 06:25:26;;;;;;;7.30;4.47;;;19.40;99.90;;;;;;7677284;23;20172;-64
2021/07/25 06:28:28;;;;;;;8.23;4.10;;;19.50;99.90;;;;;;7673641;23;20263;-65
2021/07/25 06:31:30;;;;;;;5.77;3.97;;;19.60;99.90;;;;;;7674699;23;20168;-65
2021/07/25 06:34:36;;;;;;;5.80;4.37;;;19.60;99.90;;;;;;7675453;23;20187;-65
2021/07/25 06:37:38;;;;;;;6.37;4.60;;;19.70;99.90;;;;;;7674691;23;20486;-64
2021/07/25 06:40:44;;;;;;;5.87;3.97;;;19.80;99.90;;;;;;7676389;23;20565;-64
2021/07/25 06:43:46;;;;;;;6.83;4.50;;;19.90;99.90;;;;;;7676094;23;20215;-65
2021/07/25 06:46:51;;;;;;;6.90;4.17;;;20.00;99.90;;;;;;7650284;23;20655;-64
2021/07/25 06:49:53;;;;;;;6.23;4.53;;;20.10;99.90;;;;;;7650022;23;20161;-64
2021/07/25 06:52:56;;;;;;;8.17;4.70;;;20.30;99.90;;;;;;7676753;23;20168;-65
2021/07/25 06:56:03;;;;;;;6.20;4.20;;;20.50;99.90;;;;;;7650464;23;20631;-65
2021/07/25 06:59:05;;;;;;;7.77;4.50;;;20.70;99.90;;;;;;7675502;23;20148;-66
2021/07/25 07:02:07;;;;;;;5.13;4.33;;;20.90;99.90;;;;;;7676306;23;20195;-65
2021/07/25 07:05:10;;;;;;;5.63;4.23;;;21.20;99.90;;;;;;7675802;23;20546;-66
2021/07/25 07:08:13;;;;;;;5.50;3.80;;;21.40;99.90;;;;;;7650003;23;20176;-66
2021/07/25 07:11:15;;;;;;;5.50;4.07;;;21.60;99.90;;;;;;7676184;23;20522;-66
2021/07/25 07:14:17;;;;;;;4.93;3.50;;;21.80;99.90;;;;;;7649059;23;20219;-67
2021/07/25 07:17:22;;;;;;;3.83;3.00;;;22.00;99.90;;;;;;7676220;23;20659;-65
2021/07/25 07:20:26;;;;;;;5.73;3.47;;;22.30;99.90;;;;;;7675970;23;20633;-66
2021/07/25 07:23:28;;;;;;;4.20;3.37;;;22.40;99.90;;;;;;7648939;23;20172;-66
2021/07/25 07:26:30;;;;;;;4.77;3.40;;;22.60;99.90;;;;;;7675697;23;20172;-66
2021/07/25 07:29:33;;;;;;;4.77;3.37;;;22.80;99.90;;;;;;7647899;23;20203;-66
2021/07/25 07:32:35;;;;;;;4.83;3.40;;;23.00;99.90;;;;;;7676114;23;20616;-66
2021/07/25 07:35:39;;;;;;;7.30;3.67;;;23.20;99.90;;;;;;7648882;23;20187;-66
2021/07/25 07:38:42;;;;;;;7.07;3.07;;;23.40;99.90;;;;;;7676346;23;20167;-65
2021/07/25 07:41:44;;;;;;;5.73;3.27;;;23.70;99.90;;;;;;7677058;23;20163;-65
2021/07/25 07:44:47;;;;;;;5.00;3.50;;;23.90;99.90;;;;;;7676509;23;20504;-65
2021/07/25 07:47:50;;;;;;;4.67;3.00;;;24.20;99.90;;;;;;7675121;23;20176;-66
2021/07/25 07:50:52;;;;;;;4.30;3.60;;;24.40;99.90;;;;;;7676247;23;20239;-65
2021/07/25 07:53:54;;;;;;;4.60;3.03;;;24.60;99.90;;;;;;7675009;23;20210;-65
2021/07/25 07:56:57;;;;;;;3.67;3.37;;;24.80;99.90;;;;;;7675594;23;20497;-65
2021/07/25 07:59:59;;;;;;;5.30;3.73;;;25.00;99.90;;;;;;7676088;23;20235;-65
2021/07/25 08:03:04;;;;;;;4.80;3.67;;;25.20;99.90;;;;;;7676388;23;20191;-65
2021/07/25 08:06:07;;;;;;;3.77;3.17;;;25.50;99.90;;;;;;7675914;23;20191;-64
2021/07/25 08:09:09;;;;;;;3.50;3.20;;;25.70;99.90;;;;;;7674994;23;20238;-65
2021/07/25 08:12:11;;;;;;;3.63;3.30;;;25.90;99.90;;;;;;7675423;23;20214;-65
2021/07/25 08:15:15;;;;;;;4.45;3.15;;;26.10;99.90;;;;;;7650532;23;20196;-65
2021/07/25 08:18:17;;;;;;;4.65;3.65;;;26.20;99.90;;;;;;7674979;23;20179;-65
2021/07/25 08:21:20;;;;;;;5.38;3.55;;;26.40;99.90;;;;;;7673418;23;20194;-65
2021/07/25 08:24:22;;;;;;;4.72;3.58;;;26.60;99.90;;;;;;7674332;23;20164;-65
2021/07/25 08:27:24;;;;;;;3.72;3.35;;;26.80;99.90;;;;;;7647370;23;20560;-66
2021/07/25 08:30:29;;;;;;;3.65;3.33;;;27.00;99.90;;;;;;7676150;23;20612;-65
2021/07/25 08:33:32;;;;;;;5.55;3.90;;;27.20;99.90;;;;;;7676373;23;20168;-66
2021/07/25 08:36:34;;;;;;;6.60;3.78;;;27.40;99.90;;;;;;7675718;23;20283;-66
2021/07/25 08:39:37;;;;;;;7.15;3.83;;;27.50;99.90;;;;;;7676179;23;20247;-66
2021/07/25 08:42:49;;;;;;;5.10;3.67;;;27.60;99.90;;;;;;7674978;23;20239;-66
2021/07/25 08:45:51;;;;;;;4.40;3.97;;;27.70;99.90;;;;;;7675758;23;20157;-66
2021/07/25 08:48:58;;;;;;;5.47;3.97;;;27.70;99.90;;;;;;7675467;23;20662;-66
2021/07/25 08:52:04;;;;;;;4.53;3.85;;;27.80;99.90;;;;;;7675718;23;20153;-66
2021/07/25 08:55:09;;;;;;;7.97;4.10;;;28.00;99.90;;;;;;7676026;23;20644;-66
2021/07/25 08:58:12;;;;;;;5.47;4.00;;;28.20;99.90;;;;;;7679072;23;20156;-66
2021/07/25 09:01:15;;;;;;;5.35;4.40;;;28.20;99.90;;;;;;7675689;23;20168;-65
2021/07/25 09:04:18;;;;;;;5.75;4.13;;;28.30;99.90;;;;;;7674929;23;20170;-66
2021/07/25 09:07:22;;;;;;;4.47;4.00;;;28.50;99.90;;;;;;7673615;23;20175;-66
2021/07/25 09:10:25;;;;;;;4.70;4.00;;;28.70;99.90;;;;;;7650040;23;20159;-66
2021/07/25 09:13:27;;;;;;;5.80;5.20;;;29.10;99.90;;;;;;7675167;23;20600;-66
2021/07/25 09:16:32;;;;;;;5.72;4.93;;;29.00;96.50;;;;;;7674593;23;20203;-65
2021/07/25 09:19:34;;;;;;;5.35;3.95;;;29.00;98.60;;;;;;7673038;23;20592;-65
2021/07/25 09:22:56;;;;;;;6.90;5.20;;;29.10;99.60;;;;;;7676916;23;20191;-65
2021/07/25 09:25:59;;;;;;;4.38;3.97;;;29.00;95.30;;;;;;7650601;23;20182;-66
2021/07/25 09:29:23;;;;;;;4.97;4.38;;;28.90;98.90;;;;;;7675191;23;20177;-66
2021/07/25 09:32:34;;;;;;;4.45;3.70;;;29.30;99.90;;;;;;7649988;23;20623;-66
2021/07/25 09:35:37;;;;;;;6.03;5.07;;;29.40;98.40;;;;;;7650348;23;20191;-66
2021/07/25 09:38:41;;;;;;;6.28;5.03;;;29.50;95.00;;;;;;7676849;23;20493;-66
2021/07/25 09:41:53;;;;;;;4.70;4.20;;;29.40;93.20;;;;;;7676672;23;20171;-66
2021/07/25 09:44:58;;;;;;;5.43;4.60;;;29.40;95.30;;;;;;7652437;23;20149;-66
2021/07/25 09:48:10;;;;;;;6.40;4.57;;;29.90;97.20;;;;;;7677878;23;20332;-66
2021/07/25 09:51:18;;;;;;;6.07;4.63;;;30.00;93.10;;;;;;7678453;23;20156;-66
2021/07/25 09:54:25;;;;;;;5.68;4.43;;;30.10;92.10;;;;;;7678187;23;20184;-66
2021/07/25 09:57:31;;;;;;;6.07;4.28;;;30.10;95.10;;;;;;7677689;23;20148;-66
2021/07/25 10:00:41;;;;;;;5.57;5.03;;;30.40;95.20;;;;;;7678275;23;20485;-66
2021/07/25 10:03:43;;;;;;;5.68;5.18;;;30.50;90.40;;;;;;7677880;23;20434;-66
2021/07/25 10:06:48;;;;;;;5.15;4.75;;;30.70;90.80;;;;;;7678223;23;20191;-66
2021/07/25 10:10:00;;;;;;;6.30;4.90;;;31.00;90.60;;;;;;7677641;23;20559;-66
2021/07/25 10:13:03;;;;;;;6.60;5.13;;;31.30;91.60;;;;;;7678262;23;20235;-67
2021/07/25 10:16:05;;;;;;;6.13;5.53;;;31.60;91.00;;;;;;7677950;23;20320;-66
2021/07/25 10:19:11;;;;;;;6.50;5.90;;;31.50;84.50;;;;;;7677426;23;20174;-67
2021/07/25 10:22:14;;;;;;;8.75;5.85;;;31.00;83.40;;;;;;7677916;23;20192;-66
2021/07/25 10:25:19;;;;;;;6.47;5.82;;;31.00;80.80;;;;;;7677933;23;20169;-66
2021/07/25 10:28:22;;;;;;;5.28;4.78;;;31.10;81.10;;;;;;7651923;23;20589;-66
2021/07/25 10:31:26;;;;;;;7.40;5.55;;;31.00;81.00;;;;;;7652313;23;20171;-66
2021/07/25 10:34:33;;;;;;;6.75;5.63;;;31.00;77.90;;;;;;7651278;23;20165;-66
2021/07/25 10:37:38;;;;;;;5.20;4.78;;;30.90;81.70;;;;;;7677585;23;20164;-66
2021/07/25 10:40:45;;;;;;;5.22;4.72;;;31.40;86.70;;;;;;7677861;23;20238;-66
2021/07/25 10:43:47;;;;;;;5.80;5.30;;;31.70;76.50;;;;;;7677783;23;20153;-66
2021/07/25 10:47:28;;;;;;;6.50;5.10;;;31.80;76.50;;;;;;7677292;23;20172;-66
2021/07/25 10:50:31;;;;;;;5.38;4.88;;;31.80;72.70;;;;;;7677770;23;20157;-66
2021/07/25 10:53:33;;;;;;;5.30;4.90;;;32.10;73.10;;;;;;7677366;23;20543;-67
2021/07/25 10:57:06;;;;;;;7.00;5.07;;;31.70;70.00;;;;;;7650643;23;20529;-67
2021/07/25 11:00:39;;;;;;;5.60;5.10;;;31.70;70.30;;;;;;7677399;23;20227;-66
2021/07/25 11:03:42;;;;;;;6.40;5.15;;;31.30;70.30;;;;;;7677043;23;20148;-66
2021/07/25 11:06:45;;;;;;;5.55;5.05;;;31.10;70.20;;;;;;7677294;23;20188;-66
2021/07/25 11:10:05;;;;;;;5.88;5.32;;;31.40;74.60;;;;;;7676857;23;20247;-66
2021/07/25 11:13:08;;;;;;;5.75;5.05;;;31.70;71.90;;;;;;7677373;23;20235;-66
2021/07/25 11:16:31;;;;;;;5.80;4.95;;;31.80;71.80;;;;;;7677279;23;20257;-66
2021/07/25 11:19:33;;;;;;;6.03;5.25;;;32.10;70.00;;;;;;7651327;23;20645;-67
2021/07/25 11:22:43;;;;;;;5.78;5.18;;;32.20;69.00;;;;;;7677206;23;20518;-67
2021/07/25 11:25:50;;;;;;;6.07;4.95;;;32.60;73.20;;;;;;7650407;23;20164;-66
2021/07/25 11:28:52;;;;;;;5.97;5.47;;;32.30;65.30;;;;;;7677176;23;20222;-66
2021/07/25 11:31:54;;;;;;;7.18;5.28;;;31.70;65.40;;;;;;7676708;23;20239;-66
2021/07/25 11:35:07;;;;;;;5.80;5.20;;;31.20;65.70;;;;;;7676993;23;20617;-66
2021/07/25 11:38:14;;;;;;;5.57;5.10;;;31.30;71.60;;;;;;7676915;23;20570;-67
2021/07/25 11:41:30;;;;;;;5.82;5.32;;;31.80;71.40;;;;;;7650627;23;20173;-66
2021/07/25 11:44:33;;;;;;;6.05;5.47;;;31.60;66.40;;;;;;7676603;23;20153;-66
2021/07/25 11:47:36;;;;;;;6.07;5.47;;;31.70;67.30;;;;;;7676394;23;20247;-66
2021/07/25 11:50:43;;;;;;;6.00;5.40;;;31.80;66.00;;;;;;7676762;23;20564;-66
2021/07/25 11:53:45;;;;;;;6.25;5.55;;;31.70;66.70;;;;;;7650228;23;20180;-66
2021/07/25 11:57:12;;;;;;;8.30;5.30;;;32.20;68.20;;;;;;7650911;23;20227;-66
2021/07/25 12:00:15;;;;;;;6.43;5.82;;;32.70;70.70;;;;;;7676825;23;20203;-66
2021/07/25 12:03:26;;;;;;;7.28;5.28;;;32.80;63.90;;;;;;7676229;23;20675;-67
2021/07/25 12:06:29;;;;;;;5.82;5.03;;;32.70;65.30;;;;;;7676869;23;20188;-66
2021/07/25 12:09:32;;;;;;;5.90;5.40;;;33.20;69.80;;;;;;7676088;23;20164;-67
2021/07/25 12:12:39;;;;;;;6.10;5.60;;;33.40;65.00;;;;;;7676851;23;20218;-67
2021/07/25 12:15:41;;;;;;;6.13;5.63;;;33.80;66.20;;;;;;7675985;23;20251;-67
2021/07/25 12:18:43;;;;;;;7.13;6.43;;;34.00;63.70;;;;;;7650041;23;20196;-67
2021/07/25 12:22:03;;;;;;;6.53;5.80;;;33.90;61.40;;;;;;7650494;23;20204;-66
2021/07/25 12:25:06;;;;;;;6.45;5.85;;;33.80;60.00;;;;;;7676295;23;20294;-66
2021/07/25 12:28:10;;;;;;;5.60;5.00;;;33.40;61.40;;;;;;7676426;23;20604;-67
2021/07/25 12:31:14;;;;;;;6.57;5.97;;;33.10;60.60;;;;;;7676219;23;20168;-67
2021/07/25 12:34:23;;;;;;;6.78;5.38;;;33.20;60.50;;;;;;7676578;23;20164;-67
2021/07/25 12:37:29;;;;;;;6.63;5.93;;;33.70;64.00;;;;;;7676634;23;20188;-67
2021/07/25 12:40:33;;;;;;;7.90;5.55;;;33.70;65.50;;;;;;7676726;23;20155;-67
2021/07/25 12:43:37;;;;;;;5.80;5.20;;;34.00;62.50;;;;;;7676803;23;20521;-67
2021/07/25 12:46:39;;;;;;;5.97;5.38;;;34.30;60.60;;;;;;7676056;23;20176;-67
2021/07/25 12:49:59;;;;;;;7.47;5.63;;;34.30;60.60;;;;;;7676576;23;20341;-67
2021/07/25 12:53:19;;;;;;;6.32;5.82;;;33.90;59.20;;;;;;7676270;23;20157;-67
2021/07/25 12:56:24;;;;;;;6.18;5.57;;;34.00;58.50;;;;;;7677718;23;20176;-67
2021/07/25 12:59:28;;;;;;;6.40;5.75;;;34.30;61.10;;;;;;7653026;23;20160;-67
2021/07/25 13:05:52;;;;;;;7.47;6.13;;;34.00;64.20;;;;;;7678771;23;20653;-67
2021/07/25 13:08:56;;;;;;;8.27;5.70;;;33.70;63.30;;;;;;7678122;23;20183;-67
2021/07/25 13:11:59;;;;;;;6.80;5.35;;;33.60;68.60;;;;;;7679337;23;20215;-67
2021/07/25 13:15:01;;;;;;;7.20;5.82;;;33.90;67.40;;;;;;7678230;23;20199;-67
2021/07/25 13:18:03;;;;;;;6.60;5.85;;;34.20;64.80;;;;;;7678254;23;20191;-67
2021/07/25 13:21:07;;;;;;;7.15;6.20;;;34.50;60.90;;;;;;7652973;23;20199;-67
2021/07/25 13:24:13;;;;;;;8.13;6.70;;;34.60;58.60;;;;;;7678193;23;20159;-66
2021/07/25 13:27:16;;;;;;;6.63;6.03;;;34.00;57.40;;;;;;7678673;23;20644;-67
2021/07/25 13:30:18;;;;;;;7.13;6.43;;;33.70;58.40;;;;;;7677985;23;20550;-66
2021/07/25 13:33:20;;;;;;;7.00;6.30;;;34.00;57.90;;;;;;7678306;23;20164;-67
2021/07/25 13:36:23;;;;;;;7.43;6.70;;;34.00;57.70;;;;;;7678514;23;20204;-67
2021/07/25 13:39:27;;;;;;;7.53;6.68;;;34.10;57.40;;;;;;7677827;23;20259;-67
2021/07/25 13:42:29;;;;;;;8.07;6.70;;;34.00;57.20;;;;;;7678513;23;20160;-66
2021/07/25 13:45:31;;;;;;;6.95;6.35;;;33.80;58.10;;;;;;7677758;23;20243;-67
2021/07/25 13:48:36;;;;;;;7.78;6.65;;;34.10;58.20;;;;;;7678743;23;20247;-66
2021/07/25 13:51:38;;;;;;;6.97;6.35;;;34.60;56.40;;;;;;7678450;23;20520;-67
2021/07/25 13:54:41;;;;;;;7.68;6.97;;;35.00;57.60;;;;;;7677952;23;20465;-67
2021/07/25 13:57:43;;;;;;;6.82;6.22;;;35.50;56.50;;;;;;7678204;23;20239;-67
2021/07/25 14:00:46;;;;;;;6.75;6.15;;;35.70;55.60;;;;;;7677552;23;20160;-67
2021/07/25 14:03:48;;;;;;;8.02;6.45;;;35.90;56.40;;;;;;7678361;23;20163;-67
2021/07/25 14:06:50;;;;;;;7.85;6.75;;;36.40;55.10;;;;;;7677048;23;20554;-67
2021/07/25 14:09:53;;;;;;;7.35;6.72;;;35.90;54.60;;;;;;7678028;23;20172;-67
2021/07/25 14:12:57;;;;;;;9.25;7.00;;;35.50;56.80;;;;;;7678105;23;20643;-67
2021/07/25 14:16:00;;;;;;;7.45;6.43;;;35.30;57.50;;;;;;7651098;23;20263;-67
2021/07/25 14:19:03;;;;;;;7.03;6.40;;;35.30;56.40;;;;;;7677812;23;20702;-66
2021/07/25 14:22:05;;;;;;;7.55;6.82;;;35.30;58.60;;;;;;7651094;23;20246;-67
2021/07/25 14:25:09;;;;;;;8.38;6.60;;;35.10;58.50;;;;;;7677974;23;20191;-67
2021/07/25 14:28:14;;;;;;;7.45;6.70;;;34.70;58.00;;;;;;7677621;23;20168;-67
2021/07/25 14:31:17;;;;;;;7.88;7.18;;;34.40;61.20;;;;;;7677385;23;20535;-66
2021/07/25 14:34:20;;;;;;;8.30;6.90;;;34.10;59.30;;;;;;7678045;23;20247;-67
2021/07/25 14:37:22;;;;;;;8.30;7.60;;;33.80;60.80;;;;;;7651175;23;20191;-67
2021/07/25 14:40:24;;;;;;;8.00;7.30;;;33.60;59.60;;;;;;7677730;23;20183;-67
2021/07/25 14:43:26;;;;;;;8.13;7.32;;;33.20;61.80;;;;;;7677913;23;20172;-66
2021/07/25 14:46:29;;;;;;;8.05;7.32;;;32.90;65.60;;;;;;7677234;23;20234;-67
2021/07/25 14:49:31;;;;;;;8.30;7.60;;;32.80;67.10;;;;;;7626974;23;20694;-67
2021/07/25 14:52:38;;;;;;;9.27;7.75;;;32.30;65.40;;;;;;7651149;23;20176;-67
2021/07/25 14:55:43;;;;;;;8.48;7.20;;;32.10;67.90;;;;;;7677399;23;20188;-66
2021/07/25 14:58:46;;;;;;;9.40;6.90;;;31.90;69.80;;;;;;7677384;23;20181;-66
2021/07/25 15:01:48;;;;;;;9.05;8.15;;;31.80;70.60;;;;;;7677557;23;20164;-67
2021/07/25 15:04:50;;;;;;;9.07;7.50;;;31.80;71.10;;;;;;7677371;23;20695;-66
2021/07/25 15:07:53;;;;;;;9.15;7.93;;;31.90;71.30;;;;;;7676855;23;20231;-67
2021/07/25 15:10:55;;;;;;;8.55;7.65;;;31.90;71.50;;;;;;7677306;23;20164;-67
2021/07/25 15:13:57;;;;;;;10.10;7.70;;;31.90;71.70;;;;;;7650534;23;20302;-66
2021/07/25 15:17:01;;;;;;;8.40;7.55;;;31.70;71.90;;;;;;7650719;23;20195;-66
2021/07/25 15:20:04;;;;;;;10.95;7.85;;;31.40;73.20;;;;;;7676542;23;20192;-66
2021/07/25 15:23:06;;;;;;;8.70;7.80;;;31.00;74.40;;;;;;7638509;23;20167;-66
2021/07/25 15:26:09;;;;;;;10.77;8.13;;;30.70;75.50;;;;;;7677104;23;20172;-66
2021/07/25 15:29:11;;;;;;;9.25;8.38;;;30.50;75.80;;;;;;7626335;23;20253;-67
2021/07/25 15:32:13;;;;;;;11.27;9.10;;;30.20;76.90;;;;;;7676698;23;20172;-66
2021/07/25 15:35:15;;;;;;;9.20;8.30;;;30.00;77.90;;;;;;7651339;23;20651;-66
2021/07/25 15:38:18;;;;;;;8.82;8.02;;;29.70;79.20;;;;;;7676459;23;20188;-66
2021/07/25 15:41:21;;;;;;;11.43;9.02;;;29.60;79.90;;;;;;7677269;23;20536;-66
2021/07/25 15:44:23;;;;;;;9.05;8.18;;;29.50;81.00;;;;;;7651549;23;20172;-66
2021/07/25 15:47:39;;;;;;;9.93;9.05;;;29.40;81.70;;;;;;7650922;23;20168;-66
2021/07/25 15:50:46;;;;;;;10.85;8.73;;;29.40;82.10;;;;;;7677139;23;20171;-66
2021/07/25 15:53:49;;;;;;;9.95;8.95;;;29.20;82.70;;;;;;7676537;23;20164;-66
2021/07/25 15:56:51;;;;;;;9.50;8.60;;;29.00;84.10;;;;;;7677077;23;20507;-66
2021/07/25 15:59:53;;;;;;;9.50;8.40;;;28.80;84.50;;;;;;7676421;23;20176;-67
2021/07/25 16:02:55;;;;;;;9.23;8.38;;;28.70;85.70;;;;;;7677346;23;20655;-66